Terminal Aerodrome Forecast
Issued by NWS Paducah, KY

Home | Current Version | Previous Version | Text Only | Print | Product List | Glossary On
Versions: 1 2 3 4 5 6 7 8 9 10 11 12 13 14 15 16 17 18 19 20
000
FTUS43 KPAH 230330 AAB
TAFPAH
TAF AMD
KPAH 230330Z 2304/2324 35015G25KT P6SM OVC015
     FM230900 35014G24KT P6SM BKN025
     FM231600 34012KT P6SM SCT030=

USA.gov is the U.S. government's official web portal to all federal, state and local government web resources and services.